createdAt,value
2023-04-21T00:04:57.390Z,1.71
2023-04-21T00:10:19.294Z,1.69
2023-04-21T00:15:42.374Z,1.64
2023-04-21T00:21:07.404Z,1.74
2023-04-21T00:26:29.185Z,1.69
2023-04-21T00:31:51.732Z,1.71
2023-04-21T00:37:13.718Z,1.61
2023-04-21T00:42:36.327Z,1.36
2023-04-21T00:47:58.538Z,1.29
2023-04-21T00:53:22.896Z,1.23
2023-04-21T00:58:47.114Z,1.04
2023-04-21T01:04:11.162Z,0.89
2023-04-21T01:09:34.254Z,0.94
2023-04-21T01:14:58.963Z,0.89
2023-04-21T01:20:21.991Z,0.90
2023-04-21T01:25:44.532Z,0.84
2023-04-21T01:31:07.646Z,0.78
2023-04-21T01:36:33.361Z,0.74
2023-04-21T01:41:58.776Z,0.67
2023-04-21T01:47:21.768Z,0.63
2023-04-21T01:52:44.346Z,0.54
2023-04-21T01:58:06.962Z,0.46
2023-04-21T02:03:30.003Z,0.29
2023-04-21T02:08:52.177Z,0.34
2023-04-21T02:14:14.839Z,0.37
2023-04-21T02:19:38.278Z,0.27
2023-04-21T02:25:01.452Z,0.37
2023-04-21T02:30:24.945Z,0.29
2023-04-21T02:35:47.633Z,0.36
2023-04-21T02:41:10.044Z,0.35
2023-04-21T02:46:32.870Z,0.33
2023-04-21T02:52:00.607Z,0.50
2023-04-21T02:57:28.234Z,0.56
2023-04-21T03:02:53.370Z,0.48
2023-04-21T03:08:16.558Z,0.61
2023-04-21T03:13:39.527Z,0.68
2023-04-21T03:19:03.199Z,1.01
2023-04-21T03:24:32.505Z,0.93
2023-04-21T03:35:40.173Z,1.31
2023-04-21T03:41:05.982Z,1.61
2023-04-21T03:46:29.243Z,1.72
2023-04-21T03:51:52.016Z,1.98
2023-04-21T03:57:16.805Z,2.49
2023-04-21T04:02:39.606Z,2.88
2023-04-21T04:08:02.410Z,3.24
2023-04-21T04:13:26.887Z,3.63
2023-04-21T04:18:51.146Z,4.12
2023-04-21T04:24:14.635Z,5.11
2023-04-21T04:29:36.828Z,6.68
2023-04-21T04:34:59.496Z,7.90
2023-04-21T04:40:23.016Z,8.47
2023-04-21T04:45:46.161Z,8.91
2023-04-21T04:51:08.520Z,9.20
2023-04-21T04:56:31.582Z,9.71
2023-04-21T05:01:53.800Z,10.17
2023-04-21T05:07:15.522Z,10.57
2023-04-21T05:12:37.709Z,10.81
2023-04-21T05:17:59.502Z,11.16
2023-04-21T05:23:21.608Z,11.38
2023-04-21T05:28:43.576Z,11.81
2023-04-21T05:34:05.851Z,12.07
2023-04-21T05:39:28.923Z,12.19
2023-04-21T05:44:51.294Z,12.30
2023-04-21T05:50:13.089Z,12.73
2023-04-21T05:55:36.478Z,12.97
2023-04-21T06:00:58.624Z,13.31
2023-04-21T06:06:21.356Z,13.68
2023-04-21T06:11:43.492Z,13.64
2023-04-21T06:17:05.761Z,14.02
2023-04-21T06:22:28.425Z,13.92
2023-04-21T06:27:59.665Z,13.77
2023-04-21T06:33:21.676Z,13.86
2023-04-21T06:38:43.770Z,13.81
2023-04-21T06:44:05.564Z,13.76
2023-04-21T06:49:27.700Z,13.82
2023-04-21T06:54:49.820Z,13.89
2023-04-21T07:00:12.829Z,13.90
2023-04-21T07:05:34.835Z,13.99
2023-04-21T07:10:56.862Z,13.98
2023-04-21T07:16:19.050Z,14.24
2023-04-21T07:21:41.168Z,14.36
2023-04-21T07:27:06.239Z,14.51
2023-04-21T07:32:28.706Z,14.52
2023-04-21T07:37:50.477Z,14.50
2023-04-21T07:43:12.304Z,14.39
2023-04-21T07:48:34.641Z,14.20
2023-04-21T07:53:56.741Z,14.15
2023-04-21T07:59:18.570Z,14.09
2023-04-21T08:04:43.570Z,14.19
2023-04-21T08:10:07.336Z,14.35
2023-04-21T08:15:29.243Z,14.28
2023-04-21T08:20:52.817Z,14.30
2023-04-21T08:26:15.012Z,14.28
2023-04-21T08:31:37.240Z,14.36
2023-04-21T08:36:59.385Z,15.12
2023-04-21T08:42:21.759Z,15.33
2023-04-21T08:47:43.823Z,15.42
2023-04-21T08:53:06.079Z,15.74
2023-04-21T08:58:29.900Z,15.24
2023-04-21T09:03:52.238Z,14.81
2023-04-21T09:09:14.803Z,15.18
2023-04-21T09:14:36.924Z,15.24
2023-04-21T09:20:12.675Z,15.26
2023-04-21T09:25:35.367Z,15.16
2023-04-21T09:30:57.804Z,15.30
2023-04-21T09:36:21.750Z,15.12
2023-04-21T09:41:45.149Z,15.15
2023-04-21T09:47:13.184Z,15.27
2023-04-21T09:52:35.438Z,15.37
2023-04-21T09:58:03.395Z,15.63
2023-04-21T10:03:29.517Z,15.36
2023-04-21T10:08:53.131Z,15.43
2023-04-21T10:14:15.259Z,15.31
2023-04-21T10:19:42.439Z,15.43
2023-04-21T10:25:09.837Z,15.41
2023-04-21T10:30:31.578Z,15.24
2023-04-21T10:36:04.462Z,15.22
2023-04-21T10:41:31.228Z,15.15
2023-04-21T10:46:54.684Z,15.26
2023-04-21T10:52:16.982Z,15.35
2023-04-21T10:57:42.445Z,15.72
2023-04-21T11:03:07.088Z,15.74
2023-04-21T11:08:28.702Z,15.53
2023-04-21T11:13:53.021Z,15.87
2023-04-21T11:19:18.502Z,16.03
2023-04-21T11:24:45.820Z,16.07
2023-04-21T11:30:08.782Z,15.93
2023-04-21T11:35:30.578Z,16.01
2023-04-21T11:40:53.772Z,16.07
2023-04-21T11:46:27.047Z,16.13
2023-04-21T11:51:50.984Z,16.20
2023-04-21T11:57:13.282Z,16.10
2023-04-21T12:08:41.430Z,15.65
2023-04-21T12:14:03.745Z,15.43
2023-04-21T12:19:55.235Z,15.05
2023-04-21T12:25:17.919Z,14.82
2023-04-21T12:30:50.313Z,14.83
2023-04-21T12:36:19.477Z,14.75
2023-04-21T12:41:42.469Z,14.77
2023-04-21T12:47:04.098Z,15.01
2023-04-21T12:52:26.724Z,15.03
2023-04-21T12:57:50.764Z,14.97
2023-04-21T13:03:12.944Z,15.05
2023-04-21T13:08:35.622Z,14.95
2023-04-21T13:13:57.580Z,15.18
2023-04-21T13:19:19.662Z,15.03
2023-04-21T13:24:41.781Z,15.08
2023-04-21T13:30:04.378Z,15.17
2023-04-21T13:35:26.908Z,15.13
2023-04-21T13:40:49.480Z,14.98
2023-04-21T13:46:14.217Z,15.09
2023-04-21T13:51:46.236Z,15.10
2023-04-21T14:04:01.639Z,14.88
2023-04-21T14:15:27.622Z,14.33
2023-04-21T14:20:51.945Z,14.24
2023-04-21T14:26:14.760Z,14.25
2023-04-21T14:31:41.983Z,14.39
2023-04-21T14:37:04.677Z,14.29
2023-04-21T14:42:27.048Z,14.20
2023-04-21T14:47:52.834Z,14.07
2023-04-21T14:53:15.356Z,14.10
2023-04-21T14:58:37.686Z,14.10
2023-04-21T15:04:00.475Z,13.97
2023-04-21T15:09:22.679Z,13.95
2023-04-21T15:14:45.092Z,13.82
2023-04-21T15:20:07.942Z,13.68
2023-04-21T15:25:29.597Z,13.51
2023-04-21T15:30:52.452Z,13.28
2023-04-21T15:36:14.494Z,13.11
2023-04-21T15:41:38.636Z,12.99
2023-04-21T15:47:00.787Z,12.89
2023-04-21T15:52:23.744Z,12.51
2023-04-21T15:57:46.769Z,12.41
2023-04-21T16:03:10.338Z,12.41
2023-04-21T16:08:36.106Z,12.23
2023-04-21T16:13:59.173Z,12.05
2023-04-21T16:19:21.934Z,11.83
2023-04-21T16:24:45.296Z,11.43
2023-04-21T16:30:08.762Z,11.32
2023-04-21T16:35:31.680Z,11.13
2023-04-21T16:40:54.388Z,10.92
2023-04-21T16:46:17.104Z,10.71
2023-04-21T16:51:46.186Z,10.42
2023-04-21T16:57:09.143Z,10.16
2023-04-21T17:02:32.899Z,9.95
2023-04-21T17:07:58.345Z,9.71
2023-04-21T17:13:20.710Z,9.46
2023-04-21T17:18:43.682Z,9.19
2023-04-21T17:24:06.186Z,9.06
2023-04-21T17:29:29.159Z,8.86
2023-04-21T17:34:51.185Z,8.69
2023-04-21T17:40:14.233Z,8.39
2023-04-21T17:45:36.667Z,8.26
2023-04-21T17:50:59.094Z,8.13
2023-04-21T17:56:20.096Z,8.02
2023-04-21T18:01:43.087Z,7.86
2023-04-21T18:07:06.513Z,7.66
2023-04-21T18:12:29.496Z,7.44
2023-04-21T18:17:53.583Z,7.23
2023-04-21T18:23:16.215Z,7.04
2023-04-21T18:28:39.388Z,6.78
2023-04-21T18:34:03.176Z,6.65
2023-04-21T18:39:26.708Z,6.68
2023-04-21T18:44:49.715Z,6.53
2023-04-21T18:50:13.268Z,6.38
2023-04-21T18:55:36.754Z,6.17
2023-04-21T19:00:59.580Z,6.11
2023-04-21T19:06:23.236Z,5.89
2023-04-21T19:11:46.251Z,5.83
2023-04-21T19:17:08.627Z,5.72
2023-04-21T19:22:32.591Z,5.68
2023-04-21T19:27:54.961Z,5.62
2023-04-21T19:33:17.489Z,5.60
2023-04-21T19:38:40.696Z,5.32
2023-04-21T19:44:03.042Z,5.24
2023-04-21T19:49:25.232Z,5.16
2023-04-21T19:54:49.655Z,5.13
2023-04-21T20:00:12.424Z,4.89
2023-04-21T20:05:35.318Z,4.93
2023-04-21T20:10:57.205Z,4.88
2023-04-21T20:16:20.515Z,4.81
2023-04-21T20:21:44.305Z,4.79
2023-04-21T20:27:08.654Z,4.73
2023-04-21T20:32:30.514Z,4.66
2023-04-21T20:37:53.917Z,4.52
2023-04-21T20:43:15.714Z,4.56
2023-04-21T20:48:37.710Z,4.40
2023-04-21T20:54:00.843Z,4.29
2023-04-21T20:59:33.005Z,4.30
2023-04-21T21:05:05.929Z,3.97
2023-04-21T21:10:48.332Z,3.93
2023-04-21T21:16:38.974Z,3.88
2023-04-21T21:22:17.243Z,3.75
2023-04-21T21:28:09.250Z,3.79
2023-04-21T21:33:40.588Z,3.43
2023-04-21T21:39:13.592Z,3.59
2023-04-21T21:44:55.671Z,3.43
2023-04-21T21:50:27.125Z,3.39
2023-04-21T21:55:51.549Z,3.44
2023-04-21T22:01:18.974Z,3.25
2023-04-21T22:06:41.330Z,2.99
2023-04-21T22:12:03.453Z,2.97
2023-04-21T22:17:26.132Z,2.88
2023-04-21T22:22:49.032Z,2.75
2023-04-21T22:28:11.847Z,2.69
2023-04-21T22:33:34.338Z,2.64
2023-04-21T22:38:57.135Z,2.56
2023-04-21T22:44:19.409Z,2.33
2023-04-21T22:49:42.149Z,2.18
2023-04-21T22:55:06.186Z,2.21
2023-04-21T23:00:28.722Z,2.08
2023-04-21T23:05:50.995Z,1.89
2023-04-21T23:11:13.442Z,1.88
2023-04-21T23:16:36.046Z,1.72
2023-04-21T23:21:58.308Z,1.83
2023-04-21T23:27:20.673Z,1.71
2023-04-21T23:32:43.134Z,1.77
2023-04-21T23:38:05.355Z,1.52
2023-04-21T23:43:27.395Z,1.53
2023-04-21T23:48:49.894Z,1.29
2023-04-21T23:54:12.947Z,1.09
2023-04-21T23:59:35.845Z,0.96
